sensor_id;sensor_type;location;lat;lon;timestamp;temperature;humidity
81630;DHT22;71039;49.500;10.418;2023-08-21T00:02:20;25.90;55.00
81630;DHT22;71039;49.500;10.418;2023-08-21T00:04:46;25.90;55.10
81630;DHT22;71039;49.500;10.418;2023-08-21T00:07:12;25.80;55.20
81630;DHT22;71039;49.500;10.418;2023-08-21T00:09:37;25.80;55.30
81630;DHT22;71039;49.500;10.418;2023-08-21T00:12:03;25.80;55.30
81630;DHT22;71039;49.500;10.418;2023-08-21T00:14:29;25.80;55.40
81630;DHT22;71039;49.500;10.418;2023-08-21T00:16:54;25.80;55.50
81630;DHT22;71039;49.500;10.418;2023-08-21T00:19:20;25.70;55.50
81630;DHT22;71039;49.500;10.418;2023-08-21T00:21:46;25.70;55.70
81630;DHT22;71039;49.500;10.418;2023-08-21T00:24:11;25.60;55.70
81630;DHT22;71039;49.500;10.418;2023-08-21T00:26:37;25.60;55.80
81630;DHT22;71039;49.500;10.418;2023-08-21T00:29:02;25.60;55.80
81630;DHT22;71039;49.500;10.418;2023-08-21T00:31:28;25.60;55.90
81630;DHT22;71039;49.500;10.418;2023-08-21T00:33:53;25.60;55.90
81630;DHT22;71039;49.500;10.418;2023-08-21T00:36:19;25.60;55.90
81630;DHT22;71039;49.500;10.418;2023-08-21T00:38:45;25.60;56.00
81630;DHT22;71039;49.500;10.418;2023-08-21T00:41:12;25.50;56.10
81630;DHT22;71039;49.500;10.418;2023-08-21T00:43:37;25.50;56.20
81630;DHT22;71039;49.500;10.418;2023-08-21T00:46:03;25.50;56.20
81630;DHT22;71039;49.500;10.418;2023-08-21T00:48:29;25.50;56.20
81630;DHT22;71039;49.500;10.418;2023-08-21T00:50:54;25.50;56.40
81630;DHT22;71039;49.500;10.418;2023-08-21T00:53:21;25.40;56.40
81630;DHT22;71039;49.500;10.418;2023-08-21T00:55:47;25.40;56.50
81630;DHT22;71039;49.500;10.418;2023-08-21T00:58:13;25.40;56.60
81630;DHT22;71039;49.500;10.418;2023-08-21T01:00:40;25.40;56.60
81630;DHT22;71039;49.500;10.418;2023-08-21T01:03:06;25.30;56.70
81630;DHT22;71039;49.500;10.418;2023-08-21T01:05:32;25.30;56.70
81630;DHT22;71039;49.500;10.418;2023-08-21T01:08:08;25.30;56.80
81630;DHT22;71039;49.500;10.418;2023-08-21T01:13:24;25.30;57.00
81630;DHT22;71039;49.500;10.418;2023-08-21T01:15:53;25.30;57.60
81630;DHT22;71039;49.500;10.418;2023-08-21T01:18:20;25.20;57.10
81630;DHT22;71039;49.500;10.418;2023-08-21T01:20:47;25.20;57.10
81630;DHT22;71039;49.500;10.418;2023-08-21T01:23:28;25.20;57.10
81630;DHT22;71039;49.500;10.418;2023-08-21T01:25:54;25.20;57.90
81630;DHT22;71039;49.500;10.418;2023-08-21T01:28:19;25.20;57.10
81630;DHT22;71039;49.500;10.418;2023-08-21T01:30:45;25.20;57.10
81630;DHT22;71039;49.500;10.418;2023-08-21T01:33:12;25.20;57.10
81630;DHT22;71039;49.500;10.418;2023-08-21T01:35:40;25.10;57.10
81630;DHT22;71039;49.500;10.418;2023-08-21T01:38:06;25.10;57.10
81630;DHT22;71039;49.500;10.418;2023-08-21T01:40:32;25.10;57.10
81630;DHT22;71039;49.500;10.418;2023-08-21T01:42:58;25.00;57.10
81630;DHT22;71039;49.500;10.418;2023-08-21T01:45:24;25.00;57.20
81630;DHT22;71039;49.500;10.418;2023-08-21T01:47:50;25.00;57.30
81630;DHT22;71039;49.500;10.418;2023-08-21T01:50:16;25.00;57.30
81630;DHT22;71039;49.500;10.418;2023-08-21T01:52:42;24.90;57.30
81630;DHT22;71039;49.500;10.418;2023-08-21T01:55:08;24.90;57.40
81630;DHT22;71039;49.500;10.418;2023-08-21T01:57:34;24.80;57.50
81630;DHT22;71039;49.500;10.418;2023-08-21T02:00:00;24.80;57.60
81630;DHT22;71039;49.500;10.418;2023-08-21T02:02:26;24.80;57.70
81630;DHT22;71039;49.500;10.418;2023-08-21T02:04:51;24.70;57.90
81630;DHT22;71039;49.500;10.418;2023-08-21T02:07:17;24.70;58.00
81630;DHT22;71039;49.500;10.418;2023-08-21T02:09:42;24.70;58.10
81630;DHT22;71039;49.500;10.418;2023-08-21T02:12:09;24.70;58.20
81630;DHT22;71039;49.500;10.418;2023-08-21T02:14:35;24.70;58.30
81630;DHT22;71039;49.500;10.418;2023-08-21T02:17:00;24.60;58.40
81630;DHT22;71039;49.500;10.418;2023-08-21T02:19:26;24.60;58.50
81630;DHT22;71039;49.500;10.418;2023-08-21T02:21:51;24.60;58.60
81630;DHT22;71039;49.500;10.418;2023-08-21T02:24:17;24.60;58.70
81630;DHT22;71039;49.500;10.418;2023-08-21T02:26:43;24.70;58.70
81630;DHT22;71039;49.500;10.418;2023-08-21T02:29:08;24.70;58.80
81630;DHT22;71039;49.500;10.418;2023-08-21T02:31:34;24.70;58.80
81630;DHT22;71039;49.500;10.418;2023-08-21T02:34:01;24.70;58.90
81630;DHT22;71039;49.500;10.418;2023-08-21T02:36:26;24.70;58.90
81630;DHT22;71039;49.500;10.418;2023-08-21T02:38:52;24.70;58.90
81630;DHT22;71039;49.500;10.418;2023-08-21T02:41:17;24.70;58.80
81630;DHT22;71039;49.500;10.418;2023-08-21T02:43:43;24.70;58.90
81630;DHT22;71039;49.500;10.418;2023-08-21T02:46:08;24.70;58.90
81630;DHT22;71039;49.500;10.418;2023-08-21T02:48:34;24.70;58.90
81630;DHT22;71039;49.500;10.418;2023-08-21T02:51:00;24.70;58.90
81630;DHT22;71039;49.500;10.418;2023-08-21T02:53:26;24.70;58.80
81630;DHT22;71039;49.500;10.418;2023-08-21T02:55:52;24.60;58.80
81630;DHT22;71039;49.500;10.418;2023-08-21T02:58:18;24.60;58.90
81630;DHT22;71039;49.500;10.418;2023-08-21T03:00:43;24.60;58.90
81630;DHT22;71039;49.500;10.418;2023-08-21T03:03:09;24.60;58.90
81630;DHT22;71039;49.500;10.418;2023-08-21T03:05:34;24.60;58.90
81630;DHT22;71039;49.500;10.418;2023-08-21T03:08:00;24.50;58.90
81630;DHT22;71039;49.500;10.418;2023-08-21T03:10:25;24.50;59.00
81630;DHT22;71039;49.500;10.418;2023-08-21T03:12:51;24.40;59.10
81630;DHT22;71039;49.500;10.418;2023-08-21T03:15:16;24.40;59.10
81630;DHT22;71039;49.500;10.418;2023-08-21T03:17:42;24.40;59.20
81630;DHT22;71039;49.500;10.418;2023-08-21T03:20:07;24.40;59.20
81630;DHT22;71039;49.500;10.418;2023-08-21T03:22:34;24.40;59.30
81630;DHT22;71039;49.500;10.418;2023-08-21T03:24:59;24.40;59.40
81630;DHT22;71039;49.500;10.418;2023-08-21T03:27:25;24.30;59.50
81630;DHT22;71039;49.500;10.418;2023-08-21T03:29:51;24.30;59.60
81630;DHT22;71039;49.500;10.418;2023-08-21T03:32:17;24.30;59.60
81630;DHT22;71039;49.500;10.418;2023-08-21T03:34:43;24.30;59.70
81630;DHT22;71039;49.500;10.418;2023-08-21T03:37:09;24.20;59.70
81630;DHT22;71039;49.500;10.418;2023-08-21T03:39:35;24.20;59.80
81630;DHT22;71039;49.500;10.418;2023-08-21T03:42:01;24.20;59.80
81630;DHT22;71039;49.500;10.418;2023-08-21T03:44:27;24.20;59.80
81630;DHT22;71039;49.500;10.418;2023-08-21T03:46:52;24.20;59.80
81630;DHT22;71039;49.500;10.418;2023-08-21T03:49:18;24.20;59.80
81630;DHT22;71039;49.500;10.418;2023-08-21T03:51:44;24.20;59.90
81630;DHT22;71039;49.500;10.418;2023-08-21T03:54:10;24.20;59.90
81630;DHT22;71039;49.500;10.418;2023-08-21T03:56:35;24.20;59.90
81630;DHT22;71039;49.500;10.418;2023-08-21T03:59:01;24.10;60.00
81630;DHT22;71039;49.500;10.418;2023-08-21T04:01:27;24.10;60.00
81630;DHT22;71039;49.500;10.418;2023-08-21T04:03:53;24.00;60.00
81630;DHT22;71039;49.500;10.418;2023-08-21T04:06:18;24.00;60.00
81630;DHT22;71039;49.500;10.418;2023-08-21T04:08:44;24.00;60.00
81630;DHT22;71039;49.500;10.418;2023-08-21T04:11:09;24.00;60.00
81630;DHT22;71039;49.500;10.418;2023-08-21T04:13:35;24.00;60.00
81630;DHT22;71039;49.500;10.418;2023-08-21T04:16:00;24.00;60.10
81630;DHT22;71039;49.500;10.418;2023-08-21T04:18:26;23.90;60.10
81630;DHT22;71039;49.500;10.418;2023-08-21T04:20:52;23.90;60.20
81630;DHT22;71039;49.500;10.418;2023-08-21T04:23:18;23.90;60.30
81630;DHT22;71039;49.500;10.418;2023-08-21T04:25:43;23.80;60.30
81630;DHT22;71039;49.500;10.418;2023-08-21T04:28:09;23.80;60.40
81630;DHT22;71039;49.500;10.418;2023-08-21T04:30:35;23.80;60.40
81630;DHT22;71039;49.500;10.418;2023-08-21T04:33:01;23.80;60.50
81630;DHT22;71039;49.500;10.418;2023-08-21T04:35:26;23.80;60.50
81630;DHT22;71039;49.500;10.418;2023-08-21T04:37:52;23.80;60.60
81630;DHT22;71039;49.500;10.418;2023-08-21T04:40:20;23.70;60.60
81630;DHT22;71039;49.500;10.418;2023-08-21T04:42:46;23.60;60.70
81630;DHT22;71039;49.500;10.418;2023-08-21T04:45:11;23.60;60.80
81630;DHT22;71039;49.500;10.418;2023-08-21T04:47:38;23.60;60.90
81630;DHT22;71039;49.500;10.418;2023-08-21T04:50:03;23.60;61.00
81630;DHT22;71039;49.500;10.418;2023-08-21T04:52:29;23.60;61.10
81630;DHT22;71039;49.500;10.418;2023-08-21T04:54:55;23.60;61.20
81630;DHT22;71039;49.500;10.418;2023-08-21T04:57:21;23.60;61.30
81630;DHT22;71039;49.500;10.418;2023-08-21T04:59:47;23.60;61.40
81630;DHT22;71039;49.500;10.418;2023-08-21T05:02:13;23.60;61.50
81630;DHT22;71039;49.500;10.418;2023-08-21T05:04:39;23.60;61.60
81630;DHT22;71039;49.500;10.418;2023-08-21T05:07:05;23.60;61.70
81630;DHT22;71039;49.500;10.418;2023-08-21T05:09:31;23.60;61.80
81630;DHT22;71039;49.500;10.418;2023-08-21T05:11:57;23.60;61.80
81630;DHT22;71039;49.500;10.418;2023-08-21T05:14:24;23.60;61.90
81630;DHT22;71039;49.500;10.418;2023-08-21T05:16:50;23.70;61.90
81630;DHT22;71039;49.500;10.418;2023-08-21T05:19:16;23.70;62.00
81630;DHT22;71039;49.500;10.418;2023-08-21T05:21:42;23.70;62.00
81630;DHT22;71039;49.500;10.418;2023-08-21T05:24:08;23.80;62.10
81630;DHT22;71039;49.500;10.418;2023-08-21T05:26:36;23.80;62.20
81630;DHT22;71039;49.500;10.418;2023-08-21T05:29:02;23.80;62.20
81630;DHT22;71039;49.500;10.418;2023-08-21T05:31:27;23.90;62.20
81630;DHT22;71039;49.500;10.418;2023-08-21T05:33:54;23.90;62.20
81630;DHT22;71039;49.500;10.418;2023-08-21T05:36:20;24.00;62.30
81630;DHT22;71039;49.500;10.418;2023-08-21T05:38:46;24.00;62.30
81630;DHT22;71039;49.500;10.418;2023-08-21T05:41:11;24.00;62.30
81630;DHT22;71039;49.500;10.418;2023-08-21T05:43:37;24.00;62.30
81630;DHT22;71039;49.500;10.418;2023-08-21T05:46:05;24.20;62.40
81630;DHT22;71039;49.500;10.418;2023-08-21T05:48:31;24.20;62.60
81630;DHT22;71039;49.500;10.418;2023-08-21T05:50:57;24.20;62.50
81630;DHT22;71039;49.500;10.418;2023-08-21T05:53:22;24.30;62.50
81630;DHT22;71039;49.500;10.418;2023-08-21T05:55:48;24.40;62.50
81630;DHT22;71039;49.500;10.418;2023-08-21T05:58:13;24.40;62.40
81630;DHT22;71039;49.500;10.418;2023-08-21T06:00:39;24.50;62.50
81630;DHT22;71039;49.500;10.418;2023-08-21T06:03:05;24.50;62.30
81630;DHT22;71039;49.500;10.418;2023-08-21T06:05:56;24.60;62.30
81630;DHT22;71039;49.500;10.418;2023-08-21T06:08:21;24.70;62.30
81630;DHT22;71039;49.500;10.418;2023-08-21T06:10:51;24.80;62.40
81630;DHT22;71039;49.500;10.418;2023-08-21T06:13:17;24.80;62.40
81630;DHT22;71039;49.500;10.418;2023-08-21T06:15:44;25.00;62.40
81630;DHT22;71039;49.500;10.418;2023-08-21T06:18:09;25.00;62.50
81630;DHT22;71039;49.500;10.418;2023-08-21T06:20:35;25.00;62.50
81630;DHT22;71039;49.500;10.418;2023-08-21T06:23:01;25.20;62.30
81630;DHT22;71039;49.500;10.418;2023-08-21T06:25:26;25.30;62.20
81630;DHT22;71039;49.500;10.418;2023-08-21T06:27:52;25.40;62.10
81630;DHT22;71039;49.500;10.418;2023-08-21T06:30:17;25.50;62.00
81630;DHT22;71039;49.500;10.418;2023-08-21T06:32:44;25.60;61.90
81630;DHT22;71039;49.500;10.418;2023-08-21T06:35:10;25.70;62.00
81630;DHT22;71039;49.500;10.418;2023-08-21T06:37:35;25.80;63.60
81630;DHT22;71039;49.500;10.418;2023-08-21T06:40:01;26.00;66.00
81630;DHT22;71039;49.500;10.418;2023-08-21T06:42:26;26.20;67.20
81630;DHT22;71039;49.500;10.418;2023-08-21T06:44:52;26.60;67.90
81630;DHT22;71039;49.500;10.418;2023-08-21T06:47:18;27.00;68.30
81630;DHT22;71039;49.500;10.418;2023-08-21T06:49:43;27.50;68.30
81630;DHT22;71039;49.500;10.418;2023-08-21T06:52:09;28.10;68.00
81630;DHT22;71039;49.500;10.418;2023-08-21T06:54:34;28.70;67.40
81630;DHT22;71039;49.500;10.418;2023-08-21T06:57:00;29.40;66.60
81630;DHT22;71039;49.500;10.418;2023-08-21T06:59:25;30.00;65.50
81630;DHT22;71039;49.500;10.418;2023-08-21T07:01:51;30.70;64.30
81630;DHT22;71039;49.500;10.418;2023-08-21T07:04:16;31.40;63.00
81630;DHT22;71039;49.500;10.418;2023-08-21T07:06:42;32.10;61.70
81630;DHT22;71039;49.500;10.418;2023-08-21T07:09:07;32.80;60.40
81630;DHT22;71039;49.500;10.418;2023-08-21T07:11:33;33.50;59.10
81630;DHT22;71039;49.500;10.418;2023-08-21T07:13:58;34.00;57.80
81630;DHT22;71039;49.500;10.418;2023-08-21T07:16:24;34.70;56.30
81630;DHT22;71039;49.500;10.418;2023-08-21T07:18:50;35.30;55.10
81630;DHT22;71039;49.500;10.418;2023-08-21T07:21:15;35.90;53.60
81630;DHT22;71039;49.500;10.418;2023-08-21T07:23:41;36.40;52.20
81630;DHT22;71039;49.500;10.418;2023-08-21T07:26:06;36.90;51.30
81630;DHT22;71039;49.500;10.418;2023-08-21T07:28:32;37.30;50.50
81630;DHT22;71039;49.500;10.418;2023-08-21T07:30:58;37.70;49.80
81630;DHT22;71039;49.500;10.418;2023-08-21T07:33:27;38.10;49.00
81630;DHT22;71039;49.500;10.418;2023-08-21T07:36:04;38.60;47.90
81630;DHT22;71039;49.500;10.418;2023-08-21T07:38:31;39.00;46.80
81630;DHT22;71039;49.500;10.418;2023-08-21T07:41:06;39.40;46.70
81630;DHT22;71039;49.500;10.418;2023-08-21T07:43:33;39.80;45.70
81630;DHT22;71039;49.500;10.418;2023-08-21T07:46:02;40.20;45.80
81630;DHT22;71039;49.500;10.418;2023-08-21T07:48:28;40.60;44.60
81630;DHT22;71039;49.500;10.418;2023-08-21T07:50:53;40.90;44.20
81630;DHT22;71039;49.500;10.418;2023-08-21T07:53:19;41.20;43.60
81630;DHT22;71039;49.500;10.418;2023-08-21T07:55:45;41.50;42.80
81630;DHT22;71039;49.500;10.418;2023-08-21T07:58:10;41.70;42.10
81630;DHT22;71039;49.500;10.418;2023-08-21T08:00:36;41.90;41.80
81630;DHT22;71039;49.500;10.418;2023-08-21T08:03:01;42.10;41.30
81630;DHT22;71039;49.500;10.418;2023-08-21T08:05:27;42.30;41.10
81630;DHT22;71039;49.500;10.418;2023-08-21T08:07:53;42.50;40.90
81630;DHT22;71039;49.500;10.418;2023-08-21T08:10:18;42.80;40.50
81630;DHT22;71039;49.500;10.418;2023-08-21T08:12:44;43.00;40.20
81630;DHT22;71039;49.500;10.418;2023-08-21T08:15:09;43.20;39.50
81630;DHT22;71039;49.500;10.418;2023-08-21T08:17:35;43.40;38.70
81630;DHT22;71039;49.500;10.418;2023-08-21T08:20:01;43.50;38.20
81630;DHT22;71039;49.500;10.418;2023-08-21T08:22:26;43.60;38.00
81630;DHT22;71039;49.500;10.418;2023-08-21T08:24:52;43.70;37.60
81630;DHT22;71039;49.500;10.418;2023-08-21T08:27:18;43.80;37.60
81630;DHT22;71039;49.500;10.418;2023-08-21T08:29:43;43.90;37.40
81630;DHT22;71039;49.500;10.418;2023-08-21T08:32:09;43.90;36.90
81630;DHT22;71039;49.500;10.418;2023-08-21T08:34:34;44.00;36.60
81630;DHT22;71039;49.500;10.418;2023-08-21T08:37:00;44.00;36.60
81630;DHT22;71039;49.500;10.418;2023-08-21T08:39:25;44.10;36.60
81630;DHT22;71039;49.500;10.418;2023-08-21T08:41:56;44.10;36.70
81630;DHT22;71039;49.500;10.418;2023-08-21T08:44:24;44.20;35.90
81630;DHT22;71039;49.500;10.418;2023-08-21T08:46:51;44.30;36.10
81630;DHT22;71039;49.500;10.418;2023-08-21T08:49:17;44.30;35.70
81630;DHT22;71039;49.500;10.418;2023-08-21T08:51:43;44.40;35.60
81630;DHT22;71039;49.500;10.418;2023-08-21T08:54:10;44.40;35.30
81630;DHT22;71039;49.500;10.418;2023-08-21T08:56:36;44.50;35.00
81630;DHT22;71039;49.500;10.418;2023-08-21T08:59:01;44.50;35.00
81630;DHT22;71039;49.500;10.418;2023-08-21T09:01:28;44.50;34.90
81630;DHT22;71039;49.500;10.418;2023-08-21T09:03:54;44.50;35.00
81630;DHT22;71039;49.500;10.418;2023-08-21T09:06:19;44.50;35.20
81630;DHT22;71039;49.500;10.418;2023-08-21T09:08:56;44.50;35.00
81630;DHT22;71039;49.500;10.418;2023-08-21T09:11:23;44.50;34.00
81630;DHT22;71039;49.500;10.418;2023-08-21T09:13:52;44.50;34.50
81630;DHT22;71039;49.500;10.418;2023-08-21T09:16:19;44.50;34.80
81630;DHT22;71039;49.500;10.418;2023-08-21T09:18:53;44.50;34.80
81630;DHT22;71039;49.500;10.418;2023-08-21T09:21:19;44.60;34.10
81630;DHT22;71039;49.500;10.418;2023-08-21T09:23:45;44.70;34.20
81630;DHT22;71039;49.500;10.418;2023-08-21T09:26:18;44.70;33.90
81630;DHT22;71039;49.500;10.418;2023-08-21T09:28:44;44.60;33.20
81630;DHT22;71039;49.500;10.418;2023-08-21T09:31:10;44.50;33.20
81630;DHT22;71039;49.500;10.418;2023-08-21T09:33:36;44.40;32.80
81630;DHT22;71039;49.500;10.418;2023-08-21T09:36:03;44.20;32.40
81630;DHT22;71039;49.500;10.418;2023-08-21T09:38:29;44.00;31.80
81630;DHT22;71039;49.500;10.418;2023-08-21T09:40:55;43.80;32.10
81630;DHT22;71039;49.500;10.418;2023-08-21T09:43:22;43.40;32.20
81630;DHT22;71039;49.500;10.418;2023-08-21T09:45:50;43.10;32.10
81630;DHT22;71039;49.500;10.418;2023-08-21T09:48:16;42.80;32.10
81630;DHT22;71039;49.500;10.418;2023-08-21T09:50:41;42.50;32.30
81630;DHT22;71039;49.500;10.418;2023-08-21T09:53:08;42.20;32.50
81630;DHT22;71039;49.500;10.418;2023-08-21T09:55:35;41.90;32.60
81630;DHT22;71039;49.500;10.418;2023-08-21T09:58:01;41.70;32.60
81630;DHT22;71039;49.500;10.418;2023-08-21T10:00:34;41.40;32.90
81630;DHT22;71039;49.500;10.418;2023-08-21T10:03:07;41.10;33.20
81630;DHT22;71039;49.500;10.418;2023-08-21T10:05:34;41.00;32.90
81630;DHT22;71039;49.500;10.418;2023-08-21T10:08:02;40.70;32.80
81630;DHT22;71039;49.500;10.418;2023-08-21T10:10:34;40.50;32.70
81630;DHT22;71039;49.500;10.418;2023-08-21T10:13:00;40.20;32.70
81630;DHT22;71039;49.500;10.418;2023-08-21T10:15:30;39.90;32.90
81630;DHT22;71039;49.500;10.418;2023-08-21T10:17:56;39.70;32.70
81630;DHT22;71039;49.500;10.418;2023-08-21T10:20:24;39.50;33.10
81630;DHT22;71039;49.500;10.418;2023-08-21T10:22:53;39.30;33.40
81630;DHT22;71039;49.500;10.418;2023-08-21T10:25:23;39.10;33.80
81630;DHT22;71039;49.500;10.418;2023-08-21T10:27:50;39.00;34.10
81630;DHT22;71039;49.500;10.418;2023-08-21T10:30:24;38.90;34.20
81630;DHT22;71039;49.500;10.418;2023-08-21T10:32:51;38.80;33.90
81630;DHT22;71039;49.500;10.418;2023-08-21T10:35:22;38.70;34.00
81630;DHT22;71039;49.500;10.418;2023-08-21T10:38:09;38.60;34.00
81630;DHT22;71039;49.500;10.418;2023-08-21T10:40:35;38.50;34.60
81630;DHT22;71039;49.500;10.418;2023-08-21T10:43:01;38.50;34.70
81630;DHT22;71039;49.500;10.418;2023-08-21T10:45:26;38.40;34.90
81630;DHT22;71039;49.500;10.418;2023-08-21T10:47:52;38.30;35.10
81630;DHT22;71039;49.500;10.418;2023-08-21T10:50:17;38.30;35.20
81630;DHT22;71039;49.500;10.418;2023-08-21T10:52:44;38.30;35.30
81630;DHT22;71039;49.500;10.418;2023-08-21T10:55:10;38.40;35.40
81630;DHT22;71039;49.500;10.418;2023-08-21T10:57:36;38.40;35.30
81630;DHT22;71039;49.500;10.418;2023-08-21T11:00:11;38.50;35.30
81630;DHT22;71039;49.500;10.418;2023-08-21T11:02:42;38.50;35.10
81630;DHT22;71039;49.500;10.418;2023-08-21T11:05:09;38.50;35.00
81630;DHT22;71039;49.500;10.418;2023-08-21T11:07:40;38.50;34.90
81630;DHT22;71039;49.500;10.418;2023-08-21T11:10:07;38.50;34.80
81630;DHT22;71039;49.500;10.418;2023-08-21T11:12:32;38.50;34.90
81630;DHT22;71039;49.500;10.418;2023-08-21T11:14:58;38.50;34.90
81630;DHT22;71039;49.500;10.418;2023-08-21T11:17:24;38.50;34.70
81630;DHT22;71039;49.500;10.418;2023-08-21T11:19:49;38.50;34.70
81630;DHT22;71039;49.500;10.418;2023-08-21T11:22:15;38.50;34.60
81630;DHT22;71039;49.500;10.418;2023-08-21T11:24:44;38.60;34.70
81630;DHT22;71039;49.500;10.418;2023-08-21T11:27:11;38.60;34.70
81630;DHT22;71039;49.500;10.418;2023-08-21T11:29:38;38.60;34.70
81630;DHT22;71039;49.500;10.418;2023-08-21T11:32:07;38.60;34.60
81630;DHT22;71039;49.500;10.418;2023-08-21T11:34:32;38.50;34.70
81630;DHT22;71039;49.500;10.418;2023-08-21T11:36:58;38.60;34.70
81630;DHT22;71039;49.500;10.418;2023-08-21T11:39:23;38.60;34.60
81630;DHT22;71039;49.500;10.418;2023-08-21T11:41:56;38.60;34.50
81630;DHT22;71039;49.500;10.418;2023-08-21T11:44:21;38.60;34.30
81630;DHT22;71039;49.500;10.418;2023-08-21T11:46:47;38.60;34.40
81630;DHT22;71039;49.500;10.418;2023-08-21T11:49:13;38.60;34.50
81630;DHT22;71039;49.500;10.418;2023-08-21T11:51:39;38.70;34.60
81630;DHT22;71039;49.500;10.418;2023-08-21T11:54:06;38.70;34.50
81630;DHT22;71039;49.500;10.418;2023-08-21T11:56:31;38.70;34.40
81630;DHT22;71039;49.500;10.418;2023-08-21T11:58:57;38.70;34.50
81630;DHT22;71039;49.500;10.418;2023-08-21T12:01:23;38.70;34.40
81630;DHT22;71039;49.500;10.418;2023-08-21T12:03:48;38.80;34.30
81630;DHT22;71039;49.500;10.418;2023-08-21T12:06:14;38.80;34.30
81630;DHT22;71039;49.500;10.418;2023-08-21T12:08:40;38.80;34.30
81630;DHT22;71039;49.500;10.418;2023-08-21T12:11:06;38.80;34.30
81630;DHT22;71039;49.500;10.418;2023-08-21T12:13:31;38.80;34.50
81630;DHT22;71039;49.500;10.418;2023-08-21T12:15:57;38.80;34.60
81630;DHT22;71039;49.500;10.418;2023-08-21T12:18:23;38.90;34.60
81630;DHT22;71039;49.500;10.418;2023-08-21T12:20:49;38.90;34.60
81630;DHT22;71039;49.500;10.418;2023-08-21T12:23:14;38.90;34.50
81630;DHT22;71039;49.500;10.418;2023-08-21T12:25:40;38.90;34.50
81630;DHT22;71039;49.500;10.418;2023-08-21T12:28:06;39.00;34.50
81630;DHT22;71039;49.500;10.418;2023-08-21T12:30:31;39.00;34.50
81630;DHT22;71039;49.500;10.418;2023-08-21T12:32:57;39.10;34.50
81630;DHT22;71039;49.500;10.418;2023-08-21T12:35:22;39.10;34.40
81630;DHT22;71039;49.500;10.418;2023-08-21T12:37:48;39.20;34.50
81630;DHT22;71039;49.500;10.418;2023-08-21T12:40:13;39.20;34.40
81630;DHT22;71039;49.500;10.418;2023-08-21T12:42:39;39.30;34.40
81630;DHT22;71039;49.500;10.418;2023-08-21T12:45:05;39.40;34.20
81630;DHT22;71039;49.500;10.418;2023-08-21T12:47:30;39.40;34.10
81630;DHT22;71039;49.500;10.418;2023-08-21T12:49:56;39.50;34.00
81630;DHT22;71039;49.500;10.418;2023-08-21T12:52:21;39.50;34.00
81630;DHT22;71039;49.500;10.418;2023-08-21T12:54:47;39.60;33.80
81630;DHT22;71039;49.500;10.418;2023-08-21T12:57:12;39.60;33.70
81630;DHT22;71039;49.500;10.418;2023-08-21T12:59:38;39.60;33.60
81630;DHT22;71039;49.500;10.418;2023-08-21T13:02:04;39.60;33.40
81630;DHT22;71039;49.500;10.418;2023-08-21T13:04:29;39.70;33.40
81630;DHT22;71039;49.500;10.418;2023-08-21T13:06:55;39.70;33.50
81630;DHT22;71039;49.500;10.418;2023-08-21T13:09:21;39.70;33.30
81630;DHT22;71039;49.500;10.418;2023-08-21T13:11:47;39.70;33.10
81630;DHT22;71039;49.500;10.418;2023-08-21T13:14:12;39.80;32.90
81630;DHT22;71039;49.500;10.418;2023-08-21T13:16:38;39.80;32.90
81630;DHT22;71039;49.500;10.418;2023-08-21T13:19:03;39.80;32.80
81630;DHT22;71039;49.500;10.418;2023-08-21T13:21:29;39.80;32.80
81630;DHT22;71039;49.500;10.418;2023-08-21T13:23:54;39.80;32.70
81630;DHT22;71039;49.500;10.418;2023-08-21T13:26:20;39.80;32.60
81630;DHT22;71039;49.500;10.418;2023-08-21T13:28:45;39.80;32.40
81630;DHT22;71039;49.500;10.418;2023-08-21T13:31:11;39.90;32.40
81630;DHT22;71039;49.500;10.418;2023-08-21T13:33:50;39.80;32.30
81630;DHT22;71039;49.500;10.418;2023-08-21T13:36:16;39.80;31.90
81630;DHT22;71039;49.500;10.418;2023-08-21T13:38:42;39.80;32.00
81630;DHT22;71039;49.500;10.418;2023-08-21T13:41:08;39.80;31.80
81630;DHT22;71039;49.500;10.418;2023-08-21T13:43:34;39.80;31.70
81630;DHT22;71039;49.500;10.418;2023-08-21T13:46:03;39.70;31.70
81630;DHT22;71039;49.500;10.418;2023-08-21T13:48:28;39.70;31.40
81630;DHT22;71039;49.500;10.418;2023-08-21T13:50:54;39.70;31.40
81630;DHT22;71039;49.500;10.418;2023-08-21T13:53:19;39.70;31.40
81630;DHT22;71039;49.500;10.418;2023-08-21T13:55:45;39.60;31.30
81630;DHT22;71039;49.500;10.418;2023-08-21T13:58:10;39.60;31.20
81630;DHT22;71039;49.500;10.418;2023-08-21T14:00:36;39.50;31.20
81630;DHT22;71039;49.500;10.418;2023-08-21T14:03:02;39.50;31.30
81630;DHT22;71039;49.500;10.418;2023-08-21T14:05:27;39.50;31.30
81630;DHT22;71039;49.500;10.418;2023-08-21T14:07:53;39.50;31.20
81630;DHT22;71039;49.500;10.418;2023-08-21T14:10:18;39.40;31.20
81630;DHT22;71039;49.500;10.418;2023-08-21T14:12:44;39.40;31.20
81630;DHT22;71039;49.500;10.418;2023-08-21T14:15:10;39.40;31.10
81630;DHT22;71039;49.500;10.418;2023-08-21T14:17:36;39.40;31.10
81630;DHT22;71039;49.500;10.418;2023-08-21T14:20:02;39.40;31.10
81630;DHT22;71039;49.500;10.418;2023-08-21T14:22:28;39.30;31.20
81630;DHT22;71039;49.500;10.418;2023-08-21T14:24:53;39.30;31.20
81630;DHT22;71039;49.500;10.418;2023-08-21T14:27:19;39.30;31.30
81630;DHT22;71039;49.500;10.418;2023-08-21T14:29:45;39.30;31.40
81630;DHT22;71039;49.500;10.418;2023-08-21T14:32:11;39.20;31.40
81630;DHT22;71039;49.500;10.418;2023-08-21T14:34:37;39.20;31.20
81630;DHT22;71039;49.500;10.418;2023-08-21T14:37:02;39.10;31.30
81630;DHT22;71039;49.500;10.418;2023-08-21T14:39:28;39.10;31.50
81630;DHT22;71039;49.500;10.418;2023-08-21T14:41:55;39.10;31.50
81630;DHT22;71039;49.500;10.418;2023-08-21T14:44:21;39.10;31.50
81630;DHT22;71039;49.500;10.418;2023-08-21T14:46:46;39.10;31.50
81630;DHT22;71039;49.500;10.418;2023-08-21T14:49:12;39.00;31.50
81630;DHT22;71039;49.500;10.418;2023-08-21T14:51:37;39.00;31.50
81630;DHT22;71039;49.500;10.418;2023-08-21T14:54:03;39.00;31.50
81630;DHT22;71039;49.500;10.418;2023-08-21T14:56:28;39.00;31.30
81630;DHT22;71039;49.500;10.418;2023-08-21T14:58:54;39.00;31.30
81630;DHT22;71039;49.500;10.418;2023-08-21T15:01:19;39.00;31.40
81630;DHT22;71039;49.500;10.418;2023-08-21T15:03:45;38.90;31.40
81630;DHT22;71039;49.500;10.418;2023-08-21T15:06:10;38.90;31.50
81630;DHT22;71039;49.500;10.418;2023-08-21T15:08:38;38.90;31.60
81630;DHT22;71039;49.500;10.418;2023-08-21T15:11:03;38.90;31.60
81630;DHT22;71039;49.500;10.418;2023-08-21T15:13:29;38.90;31.60